createdAt,value
2022-11-15T00:00:50.452Z,7.10
2022-11-15T00:03:19.360Z,7.85
2022-11-15T00:05:47.659Z,7.40
2022-11-15T00:08:15.901Z,9.82
2022-11-15T00:10:56.255Z,9.05
2022-11-15T00:13:24.078Z,9.57
2022-11-15T00:15:52.081Z,9.38
2022-11-15T00:18:20.804Z,8.55
2022-11-15T00:20:48.627Z,7.50
2022-11-15T00:23:17.451Z,9.23
2022-11-15T00:25:46.653Z,9.38
2022-11-15T00:28:14.758Z,6.78
2022-11-15T00:30:42.563Z,9.80
2022-11-15T00:33:11.727Z,8.55
2022-11-15T00:35:39.552Z,9.13
2022-11-15T00:38:07.472Z,8.40
2022-11-15T00:40:35.267Z,8.00
2022-11-15T00:43:04.444Z,9.30
2022-11-15T00:45:32.244Z,8.23
2022-11-15T00:48:00.046Z,9.98
2022-11-15T00:50:27.859Z,9.18
2022-11-15T00:52:55.686Z,11.40
2022-11-15T00:55:23.510Z,9.15
2022-11-15T00:57:51.312Z,9.95
2022-11-15T01:00:20.781Z,10.52
2022-11-15T01:02:48.601Z,10.93
2022-11-15T01:05:16.539Z,9.27
2022-11-15T01:07:44.365Z,10.90
2022-11-15T01:10:12.260Z,10.00
2022-11-15T01:12:40.106Z,9.60
2022-11-15T01:15:08.684Z,9.00
2022-11-15T01:17:37.839Z,9.95
2022-11-15T01:20:06.455Z,9.30
2022-11-15T01:22:34.323Z,9.35
2022-11-15T01:25:02.171Z,9.52
2022-11-15T01:27:29.995Z,10.85
2022-11-15T01:29:57.810Z,9.23
2022-11-15T01:32:25.621Z,10.50
2022-11-15T01:34:54.787Z,8.50
2022-11-15T01:37:22.723Z,10.30
2022-11-15T01:39:50.573Z,10.95
2022-11-15T01:42:19.936Z,9.00
2022-11-15T01:44:50.290Z,9.70
2022-11-15T01:47:21.784Z,8.48
2022-11-15T01:49:57.484Z,9.32
2022-11-15T01:52:28.432Z,10.25
2022-11-15T01:55:03.475Z,9.02
2022-11-15T01:57:31.687Z,10.73
2022-11-15T02:00:01.224Z,8.73
2022-11-15T02:02:29.286Z,8.57
2022-11-15T02:04:58.663Z,9.48
2022-11-15T02:07:26.777Z,8.40
2022-11-15T02:09:56.891Z,9.15
2022-11-15T02:12:25.164Z,8.98
2022-11-15T02:14:55.572Z,8.68
2022-11-15T02:17:46.343Z,9.30
2022-11-15T02:20:58.538Z,9.63
2022-11-15T02:24:06.763Z,5.85
2022-11-15T02:27:10.066Z,8.93
2022-11-15T02:29:59.212Z,8.82
2022-11-15T02:32:37.351Z,10.20
2022-11-15T02:35:14.822Z,9.90
2022-11-15T02:37:49.047Z,8.45
2022-11-15T02:40:27.047Z,10.13
2022-11-15T02:43:16.467Z,9.73
2022-11-15T02:45:49.997Z,8.57
2022-11-15T02:48:21.043Z,7.35
2022-11-15T02:50:49.920Z,9.70
2022-11-15T02:53:18.015Z,7.63
2022-11-15T02:55:48.482Z,8.52
2022-11-15T02:58:42.941Z,9.52
2022-11-15T03:01:20.423Z,9.95
2022-11-15T03:04:01.782Z,9.02
2022-11-15T03:06:37.641Z,7.38
2022-11-15T03:09:09.434Z,7.78
2022-11-15T03:11:40.843Z,6.72
2022-11-15T03:14:20.456Z,6.70
2022-11-15T03:16:52.907Z,10.43
2022-11-15T03:19:32.146Z,12.30
2022-11-15T03:22:04.660Z,17.30
2022-11-15T03:24:37.088Z,14.85
2022-11-15T03:27:07.822Z,15.73
2022-11-15T03:29:40.031Z,14.73
2022-11-15T03:34:43.515Z,14.75
2022-11-15T03:37:14.204Z,12.32
2022-11-15T03:39:42.336Z,11.73
2022-11-15T03:42:22.254Z,11.68
2022-11-15T03:44:54.800Z,8.32
2022-11-15T03:47:27.148Z,8.15
2022-11-15T03:50:02.569Z,7.22
2022-11-15T03:52:34.331Z,8.50
2022-11-15T03:55:04.956Z,7.50
2022-11-15T03:57:33.119Z,7.22
2022-11-15T04:00:00.965Z,7.65
2022-11-15T04:02:29.142Z,8.23
2022-11-15T04:04:58.303Z,6.40
2022-11-15T04:07:26.198Z,5.55
2022-11-15T04:10:06.501Z,7.47
2022-11-15T04:12:36.192Z,6.05
2022-11-15T04:15:09.045Z,5.15
2022-11-15T04:17:38.654Z,6.50
2022-11-15T04:20:28.049Z,4.68
2022-11-15T04:23:13.750Z,5.32
2022-11-15T04:25:42.060Z,4.80
2022-11-15T04:28:09.959Z,4.93
2022-11-15T04:30:37.829Z,4.88
2022-11-15T04:33:05.724Z,4.82
2022-11-15T04:35:34.895Z,7.55
2022-11-15T04:38:03.877Z,4.70
2022-11-15T04:40:31.712Z,4.88
2022-11-15T04:43:03.626Z,7.25
2022-11-15T04:45:32.333Z,5.18
2022-11-15T04:48:00.171Z,4.72
2022-11-15T04:50:27.987Z,6.72
2022-11-15T04:52:57.169Z,5.88
2022-11-15T04:55:24.964Z,5.68
2022-11-15T04:58:00.770Z,6.10
2022-11-15T05:00:29.966Z,4.68
2022-11-15T05:03:15.446Z,4.35
2022-11-15T05:05:43.625Z,8.15
2022-11-15T05:08:12.789Z,4.15
2022-11-15T05:10:40.612Z,4.45
2022-11-15T05:13:08.429Z,4.80
2022-11-15T05:15:36.254Z,5.05
2022-11-15T05:18:04.075Z,5.68
2022-11-15T05:20:31.916Z,5.95
2022-11-15T05:22:59.751Z,4.88
2022-11-15T05:25:29.034Z,4.72
2022-11-15T05:27:57.111Z,5.13
2022-11-15T05:30:25.010Z,6.80
2022-11-15T05:32:52.938Z,5.53
2022-11-15T05:35:28.030Z,6.35
2022-11-15T05:37:55.851Z,8.13
2022-11-15T05:40:23.707Z,9.57
2022-11-15T05:42:52.905Z,5.75
2022-11-15T05:45:26.574Z,4.90
2022-11-15T05:47:57.501Z,5.45
2022-11-15T05:50:25.478Z,5.72
2022-11-15T05:52:53.801Z,8.50
2022-11-15T05:55:21.851Z,8.20
2022-11-15T05:57:49.724Z,7.57
2022-11-15T06:00:19.641Z,10.07
2022-11-15T06:02:47.452Z,6.72
2022-11-15T06:05:15.396Z,10.52
2022-11-15T06:07:43.300Z,6.25
2022-11-15T06:10:11.529Z,6.93
2022-11-15T06:12:39.343Z,6.85
2022-11-15T06:15:08.183Z,8.13
2022-11-15T06:17:37.333Z,6.47
2022-11-15T06:20:05.638Z,7.65
2022-11-15T06:22:33.610Z,7.43
2022-11-15T06:25:05.207Z,7.90
2022-11-15T06:27:33.542Z,8.48
2022-11-15T06:30:01.383Z,5.47
2022-11-15T06:32:30.643Z,7.97
2022-11-15T06:34:59.832Z,7.40
2022-11-15T06:37:27.635Z,9.05
2022-11-15T06:39:55.447Z,12.52
2022-11-15T06:42:23.235Z,12.48
2022-11-15T06:44:51.082Z,9.00
2022-11-15T06:47:18.888Z,8.38
2022-11-15T06:49:46.702Z,8.02
2022-11-15T06:52:15.855Z,7.05
2022-11-15T06:54:43.681Z,7.35
2022-11-15T06:57:11.585Z,7.60
2022-11-15T06:59:40.742Z,8.43
2022-11-15T07:02:13.004Z,8.10
2022-11-15T07:04:40.866Z,7.80
2022-11-15T07:07:08.835Z,8.88
2022-11-15T07:09:38.029Z,7.70
2022-11-15T07:12:08.059Z,7.35
2022-11-15T07:14:36.470Z,6.43
2022-11-15T07:17:05.624Z,7.88
2022-11-15T07:19:33.643Z,7.18
2022-11-15T07:22:01.439Z,5.45
2022-11-15T07:24:29.261Z,7.70
2022-11-15T07:26:58.740Z,5.18
2022-11-15T07:29:27.835Z,7.15
2022-11-15T07:31:56.028Z,9.35
2022-11-15T07:34:24.681Z,5.97
2022-11-15T07:36:52.474Z,6.65
2022-11-15T07:39:20.291Z,7.75
2022-11-15T07:41:49.088Z,7.93
2022-11-15T07:44:18.386Z,6.70
2022-11-15T07:46:46.186Z,8.43
2022-11-15T07:49:14.003Z,5.63
2022-11-15T07:51:41.799Z,9.93
2022-11-15T07:54:09.621Z,5.43
2022-11-15T07:56:37.447Z,7.75
2022-11-15T07:59:05.271Z,6.10
2022-11-15T08:01:34.480Z,5.70
2022-11-15T08:04:02.341Z,5.43
2022-11-15T08:06:30.175Z,6.60
2022-11-15T08:08:58.009Z,8.88
2022-11-15T08:11:25.963Z,5.95
2022-11-15T08:13:53.755Z,4.82
2022-11-15T08:16:21.576Z,9.77
2022-11-15T08:18:50.918Z,5.75
2022-11-15T08:21:22.452Z,6.03
2022-11-15T08:23:50.412Z,6.63
2022-11-15T08:26:18.521Z,9.35
2022-11-15T08:28:46.355Z,6.85
2022-11-15T08:31:17.544Z,4.75
2022-11-15T08:33:46.456Z,6.13
2022-11-15T08:36:17.499Z,7.88
2022-11-15T08:38:45.744Z,6.07
2022-11-15T08:41:18.206Z,7.45
2022-11-15T08:43:46.038Z,8.77
2022-11-15T08:46:15.583Z,7.57
2022-11-15T08:48:43.396Z,6.40
2022-11-15T08:51:11.228Z,7.15
2022-11-15T08:53:40.620Z,7.63
2022-11-15T08:56:09.963Z,5.97
2022-11-15T08:58:38.029Z,7.53
2022-11-15T09:01:07.063Z,5.05
2022-11-15T09:03:35.280Z,4.95
2022-11-15T09:06:03.373Z,4.03
2022-11-15T09:08:47.059Z,8.50
2022-11-15T09:11:20.992Z,4.95
2022-11-15T09:13:48.925Z,5.90
2022-11-15T09:16:17.100Z,3.47
2022-11-15T09:18:45.336Z,4.80
2022-11-15T09:21:13.182Z,3.55
2022-11-15T09:23:41.168Z,4.88
2022-11-15T09:26:09.572Z,4.10
2022-11-15T09:28:42.586Z,4.72
2022-11-15T09:31:10.433Z,5.30
2022-11-15T09:33:38.628Z,4.00
2022-11-15T09:36:08.887Z,3.47
2022-11-15T09:38:37.236Z,5.45
2022-11-15T09:41:30.732Z,4.38
2022-11-15T09:44:21.185Z,3.53
2022-11-15T09:47:03.444Z,4.32
2022-11-15T09:49:32.774Z,4.80
2022-11-15T09:52:01.121Z,3.63
2022-11-15T09:57:26.322Z,5.07
2022-11-15T10:00:30.864Z,5.25
2022-11-15T10:03:02.968Z,4.30
2022-11-15T10:05:32.438Z,9.35
2022-11-15T10:08:08.124Z,4.53
2022-11-15T10:10:42.125Z,5.22
2022-11-15T10:13:18.126Z,6.55
2022-11-15T10:15:49.709Z,5.57
2022-11-15T10:18:20.793Z,5.60
2022-11-15T10:20:51.328Z,5.60
2022-11-15T10:23:21.465Z,3.65
2022-11-15T10:25:52.540Z,5.68
2022-11-15T10:28:24.634Z,4.70
2022-11-15T10:30:55.987Z,6.95
2022-11-15T10:33:31.899Z,4.70
2022-11-15T10:36:21.306Z,5.47
2022-11-15T10:38:58.044Z,4.55
2022-11-15T10:41:39.270Z,4.82
2022-11-15T10:44:29.001Z,5.85
2022-11-15T10:47:27.458Z,5.60
2022-11-15T10:50:01.375Z,3.90
2022-11-15T10:52:30.822Z,4.60
2022-11-15T10:55:03.412Z,6.18
2022-11-15T10:57:34.723Z,6.88
2022-11-15T11:00:06.136Z,11.10
2022-11-15T11:02:38.444Z,24.90
2022-11-15T11:07:37.764Z,11.63
2022-11-15T11:10:49.320Z,9.32
2022-11-15T11:13:17.110Z,11.95
2022-11-15T11:15:49.108Z,10.65
2022-11-15T11:18:25.414Z,4.35
2022-11-15T11:20:59.702Z,5.10
2022-11-15T11:23:40.398Z,4.38
2022-11-15T11:26:28.261Z,5.82
2022-11-15T11:29:03.940Z,4.97
2022-11-15T11:31:40.159Z,4.13
2022-11-15T11:34:17.815Z,3.65
2022-11-15T11:36:53.647Z,3.90
2022-11-15T11:39:30.907Z,4.15
2022-11-15T11:42:09.495Z,5.35
2022-11-15T11:44:47.874Z,5.95
2022-11-15T11:47:24.104Z,5.10
2022-11-15T11:49:55.841Z,5.65
2022-11-15T11:52:28.119Z,5.22
2022-11-15T11:57:40.082Z,4.60
2022-11-15T12:00:19.572Z,4.85
2022-11-15T12:02:52.644Z,6.82
2022-11-15T12:05:29.314Z,5.60
2022-11-15T12:08:04.508Z,4.95
2022-11-15T12:10:35.227Z,4.47
2022-11-15T12:13:09.880Z,5.28
2022-11-15T12:15:42.982Z,5.32
2022-11-15T12:18:14.912Z,4.47
2022-11-15T12:20:51.993Z,8.00
2022-11-15T12:23:24.587Z,5.55
2022-11-15T12:25:56.083Z,5.28
2022-11-15T12:28:37.675Z,4.95
2022-11-15T12:31:13.039Z,5.85
2022-11-15T12:33:43.649Z,5.03
2022-11-15T12:36:31.638Z,4.35
2022-11-15T12:39:01.185Z,4.03
2022-11-15T12:41:30.517Z,5.43
2022-11-15T12:44:00.044Z,3.90
2022-11-15T12:47:01.168Z,4.38
2022-11-15T12:49:46.917Z,4.95
2022-11-15T12:52:17.229Z,4.40
2022-11-15T12:54:54.214Z,3.90
2022-11-15T12:57:34.955Z,4.07
2022-11-15T13:00:07.846Z,4.93
2022-11-15T13:02:37.182Z,4.57
2022-11-15T13:06:07.925Z,3.63
2022-11-15T13:08:51.915Z,6.38
2022-11-15T13:11:49.372Z,3.80
2022-11-15T13:14:50.589Z,4.40
2022-11-15T13:17:35.327Z,5.65
2022-11-15T13:20:20.315Z,4.70
2022-11-15T13:22:57.528Z,6.35
2022-11-15T13:25:52.928Z,5.43
2022-11-15T13:28:24.571Z,5.70
2022-11-15T13:30:54.394Z,5.80
2022-11-15T13:33:25.317Z,4.45
2022-11-15T13:35:58.479Z,4.33
2022-11-15T13:38:31.171Z,5.20
2022-11-15T13:41:01.642Z,5.50
2022-11-15T13:43:33.461Z,5.53
2022-11-15T13:48:40.962Z,4.65
2022-11-15T13:51:15.348Z,5.45
2022-11-15T13:53:47.774Z,4.80
2022-11-15T13:56:18.308Z,4.93
2022-11-15T13:58:46.401Z,6.32
2022-11-15T14:01:20.613Z,4.50
2022-11-15T14:03:52.875Z,4.47
2022-11-15T14:06:22.890Z,4.47
2022-11-15T14:09:03.495Z,5.38
2022-11-15T14:11:33.149Z,4.85
2022-11-15T14:14:16.629Z,6.13
2022-11-15T14:16:46.016Z,8.13
2022-11-15T14:19:34.778Z,7.88
2022-11-15T14:22:21.397Z,6.10
2022-11-15T14:25:05.043Z,4.45
2022-11-15T14:27:35.117Z,5.10
2022-11-15T14:30:03.441Z,5.57
2022-11-15T14:32:39.006Z,5.25
2022-11-15T14:35:14.070Z,8.38
2022-11-15T14:37:41.891Z,4.95
2022-11-15T14:40:15.020Z,5.38
2022-11-15T14:42:44.684Z,6.75
2022-11-15T14:45:16.016Z,7.95
2022-11-15T14:47:44.304Z,6.33
2022-11-15T14:50:16.993Z,6.22
2022-11-15T14:52:45.358Z,7.53
2022-11-15T14:55:19.554Z,5.05
2022-11-15T14:57:48.839Z,9.70
2022-11-15T15:00:17.478Z,16.73
2022-11-15T15:02:47.169Z,10.45
2022-11-15T15:05:17.513Z,13.75
2022-11-15T15:07:45.603Z,6.95
2022-11-15T15:10:39.044Z,8.52
2022-11-15T15:13:04.730Z,6.57
2022-11-15T15:15:35.634Z,7.10
2022-11-15T15:18:03.524Z,7.72
2022-11-15T15:20:31.591Z,11.50
2022-11-15T15:22:59.710Z,5.25
2022-11-15T15:25:30.850Z,7.00
2022-11-15T15:27:58.694Z,5.63
2022-11-15T15:30:31.117Z,5.88
2022-11-15T15:32:58.999Z,6.28
2022-11-15T15:35:31.111Z,8.00
2022-11-15T15:37:59.599Z,7.25
2022-11-15T15:40:29.621Z,5.85
2022-11-15T15:42:57.453Z,6.05
2022-11-15T15:45:27.882Z,7.63
2022-11-15T15:47:55.925Z,9.82
2022-11-15T15:50:26.508Z,10.25
2022-11-15T15:52:55.805Z,13.52
2022-11-15T15:55:24.439Z,8.65
2022-11-15T15:57:52.848Z,8.23
2022-11-15T16:00:22.193Z,9.55
2022-11-15T16:02:51.691Z,7.28
2022-11-15T16:05:19.799Z,10.20
2022-11-15T16:07:48.494Z,9.52
2022-11-15T16:10:23.065Z,10.95
2022-11-15T16:12:51.121Z,12.05
2022-11-15T16:15:19.613Z,9.90
2022-11-15T16:17:52.806Z,12.93
2022-11-15T16:20:31.496Z,11.07
2022-11-15T16:23:03.090Z,9.35
2022-11-15T16:25:40.434Z,12.88
2022-11-15T16:28:19.312Z,10.88
2022-11-15T16:30:49.991Z,10.88
2022-11-15T16:33:21.548Z,10.95
2022-11-15T16:35:49.878Z,10.65
2022-11-15T16:38:18.108Z,9.45
2022-11-15T16:40:46.018Z,10.55
2022-11-15T16:43:14.005Z,13.27
2022-11-15T16:45:42.250Z,9.90
2022-11-15T16:48:23.365Z,11.15
2022-11-15T16:50:51.195Z,9.63
2022-11-15T16:53:19.187Z,11.45
2022-11-15T16:55:47.037Z,11.40
2022-11-15T16:58:14.864Z,12.35
2022-11-15T17:00:42.848Z,11.23
2022-11-15T17:03:10.731Z,12.38
2022-11-15T17:05:39.925Z,10.20
2022-11-15T17:08:07.941Z,10.38
2022-11-15T17:10:35.910Z,13.25
2022-11-15T17:13:03.712Z,12.93
2022-11-15T17:15:31.587Z,11.93
2022-11-15T17:17:59.404Z,11.15
2022-11-15T17:20:27.424Z,17.40
2022-11-15T17:22:57.425Z,11.52
2022-11-15T17:25:25.323Z,12.50
2022-11-15T17:27:53.324Z,14.40
2022-11-15T17:30:21.360Z,12.52
2022-11-15T17:32:49.763Z,12.50
2022-11-15T17:35:17.774Z,17.02
2022-11-15T17:37:45.632Z,12.57
2022-11-15T17:40:15.012Z,15.00
2022-11-15T17:42:43.031Z,12.60
2022-11-15T17:45:12.280Z,11.50
2022-11-15T17:47:40.256Z,13.70
2022-11-15T17:50:08.365Z,13.20
2022-11-15T17:52:36.202Z,12.13
2022-11-15T17:55:04.067Z,12.02
2022-11-15T17:57:33.266Z,11.88
2022-11-15T18:00:01.104Z,11.20
2022-11-15T18:02:28.956Z,10.52
2022-11-15T18:04:56.789Z,11.82
2022-11-15T18:07:24.657Z,14.00
2022-11-15T18:09:53.660Z,12.45
2022-11-15T18:12:21.640Z,11.57
2022-11-15T18:14:50.844Z,13.05
2022-11-15T18:17:19.187Z,15.68
2022-11-15T18:19:48.531Z,18.27
2022-11-15T18:22:16.445Z,17.42
2022-11-15T18:24:44.834Z,18.55
2022-11-15T18:27:12.657Z,17.88
2022-11-15T18:29:40.458Z,13.80
2022-11-15T18:32:12.512Z,15.13
2022-11-15T18:34:40.894Z,14.18
2022-11-15T18:37:09.121Z,16.17
2022-11-15T18:39:37.731Z,16.00
2022-11-15T18:42:05.873Z,17.08
2022-11-15T18:44:34.386Z,14.00
2022-11-15T18:47:02.223Z,14.20
2022-11-15T18:49:31.403Z,12.65
2022-11-15T18:51:59.270Z,12.57
2022-11-15T18:54:31.261Z,12.70
2022-11-15T18:56:59.795Z,17.30
2022-11-15T18:59:28.121Z,23.92
2022-11-15T19:01:56.870Z,22.40
2022-11-15T19:04:24.809Z,21.60
2022-11-15T19:06:54.283Z,16.42
2022-11-15T19:09:22.191Z,19.63
2022-11-15T19:11:51.539Z,19.95
2022-11-15T19:14:23.813Z,17.25
2022-11-15T19:16:52.429Z,20.42
2022-11-15T19:19:22.136Z,17.00
2022-11-15T19:21:50.131Z,16.63
2022-11-15T19:24:19.464Z,16.05
2022-11-15T19:26:47.906Z,17.20
2022-11-15T19:29:17.224Z,15.95
2022-11-15T19:31:45.352Z,16.25
2022-11-15T19:34:13.388Z,17.08
2022-11-15T19:36:42.532Z,15.10
2022-11-15T19:39:12.848Z,15.05
2022-11-15T19:41:43.875Z,14.90
2022-11-15T19:44:12.621Z,15.25
2022-11-15T19:46:40.953Z,12.63
2022-11-15T19:49:10.775Z,11.55
2022-11-15T19:51:41.487Z,16.10
2022-11-15T19:54:10.434Z,16.25
2022-11-15T19:56:39.609Z,14.93
2022-11-15T19:59:11.387Z,12.70
2022-11-15T20:01:39.746Z,14.35
2022-11-15T20:04:09.939Z,15.32
2022-11-15T20:06:41.205Z,13.57
2022-11-15T20:09:09.607Z,12.90
2022-11-15T20:11:39.281Z,13.55
2022-11-15T20:14:10.683Z,12.38
2022-11-15T20:16:38.614Z,13.67
2022-11-15T20:19:07.233Z,12.95
2022-11-15T20:21:35.343Z,12.98
2022-11-15T20:24:03.261Z,14.55
2022-11-15T20:26:32.195Z,12.55
2022-11-15T20:29:03.025Z,14.15
2022-11-15T20:31:32.921Z,15.70
2022-11-15T20:34:00.924Z,14.65
2022-11-15T20:36:29.224Z,11.65
2022-11-15T20:38:58.819Z,11.85
2022-11-15T20:41:27.429Z,11.57
2022-11-15T20:43:55.578Z,12.40
2022-11-15T20:46:23.698Z,11.93
2022-11-15T20:48:52.945Z,13.05
2022-11-15T20:51:21.359Z,11.45
2022-11-15T20:53:49.296Z,11.15
2022-11-15T20:56:20.143Z,13.85
2022-11-15T20:58:50.244Z,11.63
2022-11-15T21:01:23.255Z,10.57
2022-11-15T21:03:53.267Z,10.15
2022-11-15T21:06:21.696Z,10.80
2022-11-15T21:09:07.396Z,11.75
2022-11-15T21:11:52.779Z,15.55
2022-11-15T21:14:20.664Z,10.73
2022-11-15T21:16:48.499Z,12.32
2022-11-15T21:19:19.755Z,13.10
2022-11-15T21:21:50.536Z,12.85
2022-11-15T21:24:20.014Z,11.52
2022-11-15T21:26:48.150Z,13.15
2022-11-15T21:29:17.077Z,16.25
2022-11-15T21:31:45.220Z,12.68
2022-11-15T21:34:13.079Z,12.32
2022-11-15T21:36:42.455Z,10.00
2022-11-15T21:39:10.601Z,11.77
2022-11-15T21:41:38.560Z,14.25
2022-11-15T21:44:06.891Z,10.15
2022-11-15T21:46:37.015Z,11.07
2022-11-15T21:49:05.424Z,9.45
2022-11-15T21:51:33.663Z,10.25
2022-11-15T21:54:03.142Z,10.13
2022-11-15T21:56:31.113Z,12.25
2022-11-15T21:58:59.021Z,11.90
2022-11-15T22:01:46.336Z,12.65
2022-11-15T22:04:14.689Z,12.27
2022-11-15T22:06:42.546Z,10.23
2022-11-15T22:09:12.008Z,12.73
2022-11-15T22:11:40.282Z,10.32
2022-11-15T22:14:08.159Z,11.15
2022-11-15T22:16:37.566Z,10.90
2022-11-15T22:19:05.414Z,9.10
2022-11-15T22:21:33.503Z,12.43
2022-11-15T22:24:01.422Z,11.25
2022-11-15T22:26:30.591Z,14.18
2022-11-15T22:28:58.418Z,15.23
2022-11-15T22:31:26.273Z,13.38
2022-11-15T22:33:54.103Z,13.63
2022-11-15T22:36:21.953Z,14.50
2022-11-15T22:38:49.803Z,16.83
2022-11-15T22:41:17.631Z,14.45
2022-11-15T22:43:48.167Z,14.65
2022-11-15T22:46:16.407Z,14.90
2022-11-15T22:48:44.212Z,14.38
2022-11-15T22:51:12.036Z,12.40
2022-11-15T22:53:39.936Z,12.65
2022-11-15T22:56:08.257Z,12.60
2022-11-15T22:58:36.613Z,14.05
2022-11-15T23:01:06.936Z,13.82
2022-11-15T23:03:35.424Z,12.00
2022-11-15T23:06:04.657Z,14.55
2022-11-15T23:08:32.816Z,12.75
2022-11-15T23:11:19.269Z,14.63
2022-11-15T23:13:47.416Z,13.52
2022-11-15T23:16:34.499Z,12.63
2022-11-15T23:19:06.335Z,15.55
2022-11-15T23:21:53.243Z,13.43
2022-11-15T23:24:21.811Z,16.02
2022-11-15T23:26:52.069Z,12.80
2022-11-15T23:29:22.841Z,13.07
2022-11-15T23:32:09.716Z,14.73
2022-11-15T23:34:39.965Z,14.60
2022-11-15T23:37:09.802Z,13.15
2022-11-15T23:39:37.770Z,15.13
2022-11-15T23:42:09.010Z,13.88
2022-11-15T23:44:37.560Z,14.07
2022-11-15T23:47:06.820Z,14.77
2022-11-15T23:49:34.636Z,12.63
2022-11-15T23:52:02.492Z,12.50
2022-11-15T23:54:30.662Z,12.32
2022-11-15T23:56:58.483Z,13.02
2022-11-15T23:59:26.303Z,16.02
